createdAt,value
2023-03-27T00:00:12.953Z,99.90
2023-03-27T00:02:42.606Z,1.00
2023-03-27T00:05:11.325Z,1.00
2023-03-27T00:07:41.277Z,1.00
2023-03-27T00:10:10.370Z,99.90
2023-03-27T00:12:39.186Z,99.90
2023-03-27T00:15:08.345Z,99.90
2023-03-27T00:17:37.505Z,1.00
2023-03-27T00:20:08.011Z,1.00
2023-03-27T00:22:36.136Z,99.90
2023-03-27T00:25:05.194Z,1.00
2023-03-27T00:27:33.290Z,74.10
2023-03-27T00:30:01.324Z,25.10
2023-03-27T00:32:29.454Z,1.00
2023-03-27T00:34:57.560Z,1.00
2023-03-27T00:37:27.134Z,1.00
2023-03-27T00:39:55.717Z,1.00
2023-03-27T00:42:24.927Z,1.00
2023-03-27T00:44:54.203Z,1.00
2023-03-27T00:47:30.959Z,1.00
2023-03-27T00:50:00.602Z,99.90
2023-03-27T00:52:31.545Z,99.90
2023-03-27T00:55:04.149Z,99.90
2023-03-27T00:57:32.654Z,99.90
2023-03-27T01:00:02.404Z,1.00
2023-03-27T01:02:30.529Z,30.80
2023-03-27T01:04:58.907Z,1.00
2023-03-27T01:07:28.687Z,1.00
2023-03-27T01:09:58.272Z,1.00
2023-03-27T01:12:40.987Z,86.50
2023-03-27T01:15:26.476Z,1.00
2023-03-27T01:18:11.092Z,1.00
2023-03-27T01:21:24.089Z,1.00
2023-03-27T01:24:42.056Z,1.00
2023-03-27T01:27:18.529Z,1.00
2023-03-27T01:29:57.726Z,32.80
2023-03-27T01:32:52.269Z,1.00
2023-03-27T01:35:51.812Z,1.00
2023-03-27T01:38:37.779Z,99.90
2023-03-27T01:41:13.595Z,99.90
2023-03-27T01:43:47.292Z,99.90
2023-03-27T01:46:21.367Z,1.00
2023-03-27T01:48:56.002Z,1.00
2023-03-27T01:51:28.382Z,1.00
2023-03-27T01:54:00.893Z,1.00
2023-03-27T01:56:33.947Z,99.90
2023-03-27T01:59:07.846Z,1.00
2023-03-27T02:01:40.776Z,99.90
2023-03-27T02:04:13.660Z,99.90
2023-03-27T02:06:46.064Z,99.90
2023-03-27T02:09:20.506Z,1.00
2023-03-27T02:11:55.785Z,3.10
2023-03-27T02:14:28.565Z,1.00
2023-03-27T02:17:00.888Z,1.00
2023-03-27T02:19:35.194Z,1.00
2023-03-27T02:22:03.583Z,1.00
2023-03-27T02:24:31.677Z,1.00
2023-03-27T02:27:09.167Z,1.00
2023-03-27T02:29:49.321Z,1.00
2023-03-27T02:32:32.951Z,1.00
2023-03-27T02:35:09.995Z,1.00
2023-03-27T02:37:48.113Z,21.70
2023-03-27T02:40:25.874Z,1.00
2023-03-27T02:43:06.639Z,1.00
2023-03-27T02:45:48.976Z,1.00
2023-03-27T02:48:21.610Z,1.00
2023-03-27T02:50:54.632Z,1.00
2023-03-27T02:53:25.605Z,1.00
2023-03-27T02:55:56.445Z,1.00
2023-03-27T02:58:32.229Z,99.90
2023-03-27T03:01:01.931Z,99.90
2023-03-27T03:03:34.664Z,1.00
2023-03-27T03:06:07.090Z,99.90
2023-03-27T03:08:38.518Z,99.90
2023-03-27T03:11:10.080Z,99.90
2023-03-27T03:13:39.947Z,99.90
2023-03-27T03:16:09.972Z,99.90
2023-03-27T03:18:38.087Z,99.90
2023-03-27T03:21:06.858Z,90.50
2023-03-27T03:23:35.094Z,7.60
2023-03-27T03:26:03.443Z,1.00
2023-03-27T03:28:31.512Z,1.00
2023-03-27T03:31:02.795Z,1.00
2023-03-27T03:33:31.138Z,1.00
2023-03-27T03:36:00.866Z,1.00
2023-03-27T03:38:30.269Z,1.00
2023-03-27T03:41:07.122Z,1.00
2023-03-27T03:43:35.739Z,1.00
2023-03-27T03:46:05.648Z,1.00
2023-03-27T03:48:34.202Z,1.00
2023-03-27T03:51:02.319Z,1.00
2023-03-27T03:53:30.404Z,1.00
2023-03-27T03:55:58.506Z,1.00
2023-03-27T03:58:34.595Z,99.90
2023-03-27T04:01:04.573Z,1.00
2023-03-27T04:03:34.006Z,1.00
2023-03-27T04:06:05.571Z,1.00
2023-03-27T04:08:34.081Z,1.00
2023-03-27T04:11:02.206Z,1.00
2023-03-27T04:13:30.686Z,99.90
2023-03-27T04:16:01.801Z,99.90
2023-03-27T04:18:32.898Z,99.90
2023-03-27T04:21:01.472Z,99.90
2023-03-27T04:23:33.253Z,99.90
2023-03-27T04:26:04.038Z,1.00
2023-03-27T04:28:34.613Z,99.90
2023-03-27T04:31:06.463Z,99.90
2023-03-27T04:33:39.240Z,99.90
2023-03-27T04:36:09.056Z,99.90
2023-03-27T04:38:39.183Z,99.90
2023-03-27T04:41:07.990Z,99.90
2023-03-27T04:43:37.262Z,99.90
2023-03-27T04:46:06.678Z,99.90
2023-03-27T04:48:39.104Z,99.90
2023-03-27T04:51:09.364Z,99.90
2023-03-27T04:53:38.017Z,99.90
2023-03-27T04:56:07.363Z,99.90
2023-03-27T04:58:37.472Z,99.90
2023-03-27T05:01:06.444Z,99.90
2023-03-27T05:03:35.957Z,99.90
2023-03-27T05:06:04.866Z,99.90
2023-03-27T05:08:33.322Z,99.90
2023-03-27T05:11:01.587Z,99.90
2023-03-27T05:13:29.616Z,99.90
2023-03-27T05:15:59.163Z,99.90
2023-03-27T05:18:27.632Z,99.90
2023-03-27T05:20:57.521Z,99.90
2023-03-27T05:23:25.793Z,99.90
2023-03-27T05:25:59.792Z,99.90
2023-03-27T05:28:29.378Z,99.90
2023-03-27T05:30:58.370Z,99.90
2023-03-27T05:33:26.912Z,99.90
2023-03-27T05:35:57.522Z,99.90
2023-03-27T05:38:26.709Z,99.90
2023-03-27T05:40:54.988Z,99.90
2023-03-27T05:43:23.287Z,99.90
2023-03-27T05:45:51.704Z,99.90
2023-03-27T05:48:19.812Z,99.90
2023-03-27T05:50:47.916Z,99.90
2023-03-27T05:53:17.449Z,99.90
2023-03-27T05:55:46.380Z,99.90
2023-03-27T05:58:15.149Z,99.90
2023-03-27T06:00:44.198Z,99.90
2023-03-27T06:03:13.911Z,99.90
2023-03-27T06:05:43.027Z,99.90
2023-03-27T06:08:11.780Z,99.90
2023-03-27T06:10:44.291Z,99.90
2023-03-27T06:13:14.740Z,99.90
2023-03-27T06:15:44.431Z,99.90
2023-03-27T06:18:12.660Z,99.90
2023-03-27T06:20:41.430Z,99.90
2023-03-27T06:23:09.595Z,99.90
2023-03-27T06:25:39.847Z,99.90
2023-03-27T06:28:09.958Z,99.90
2023-03-27T06:30:38.963Z,99.90
2023-03-27T06:33:09.110Z,99.90
2023-03-27T06:35:37.813Z,99.90
2023-03-27T06:38:07.055Z,99.90
2023-03-27T06:40:36.363Z,99.90
2023-03-27T06:43:06.815Z,99.90
2023-03-27T06:45:38.703Z,99.90
2023-03-27T06:48:17.865Z,99.90
2023-03-27T06:50:51.207Z,99.90
2023-03-27T06:55:51.618Z,99.90
2023-03-27T06:58:20.508Z,99.90
2023-03-27T07:00:51.263Z,99.90
2023-03-27T07:03:20.731Z,99.90
2023-03-27T07:05:49.772Z,99.90
2023-03-27T07:08:24.064Z,99.90
2023-03-27T07:11:10.114Z,99.90
2023-03-27T07:13:41.077Z,99.90
2023-03-27T07:16:12.736Z,99.90
2023-03-27T07:18:41.835Z,99.90
2023-03-27T07:21:10.110Z,99.90
2023-03-27T07:23:38.340Z,99.90
2023-03-27T07:26:07.127Z,99.90
2023-03-27T07:28:38.515Z,99.90
2023-03-27T07:31:32.612Z,99.90
2023-03-27T07:34:03.137Z,99.90
2023-03-27T07:36:31.192Z,99.90
2023-03-27T07:38:59.359Z,99.90
2023-03-27T07:41:30.081Z,99.90
2023-03-27T07:43:58.291Z,99.90
2023-03-27T07:46:28.289Z,99.90
2023-03-27T07:48:56.661Z,99.90
2023-03-27T07:51:25.075Z,99.90
2023-03-27T07:53:58.457Z,99.90
2023-03-27T07:56:26.879Z,99.90
2023-03-27T07:58:55.296Z,99.90
2023-03-27T08:01:24.344Z,99.90
2023-03-27T08:03:55.028Z,99.90
2023-03-27T08:06:23.536Z,99.90
2023-03-27T08:08:51.952Z,99.90
2023-03-27T08:11:30.343Z,99.90
2023-03-27T08:13:59.627Z,99.90
2023-03-27T08:16:30.475Z,99.90
2023-03-27T08:19:01.372Z,99.90
2023-03-27T08:21:33.347Z,99.90
2023-03-27T08:24:03.034Z,99.90
2023-03-27T08:26:32.304Z,99.90
2023-03-27T08:29:01.129Z,99.90
2023-03-27T08:31:31.317Z,99.90
2023-03-27T08:34:01.030Z,99.90
2023-03-27T08:36:29.331Z,99.90
2023-03-27T08:38:58.016Z,99.90
2023-03-27T08:41:30.780Z,99.90
2023-03-27T08:44:04.027Z,99.90
2023-03-27T08:46:37.766Z,99.90
2023-03-27T08:49:12.963Z,99.90
2023-03-27T08:51:48.404Z,99.90
2023-03-27T08:54:21.548Z,99.90
2023-03-27T08:56:50.407Z,99.90
2023-03-27T08:59:21.525Z,99.90
2023-03-27T09:01:58.771Z,99.90
2023-03-27T09:04:39.216Z,99.90
2023-03-27T09:07:12.720Z,99.90
2023-03-27T09:09:53.166Z,99.90
2023-03-27T09:12:38.737Z,99.90
2023-03-27T09:15:13.621Z,99.90
2023-03-27T09:17:45.481Z,99.90
2023-03-27T09:20:20.417Z,99.90
2023-03-27T09:22:53.879Z,99.90
2023-03-27T09:25:27.524Z,99.10
2023-03-27T09:27:57.057Z,99.90
2023-03-27T09:30:28.181Z,96.30
2023-03-27T09:33:00.185Z,92.70
2023-03-27T09:35:29.922Z,95.40
2023-03-27T09:38:03.924Z,92.20
2023-03-27T09:40:38.567Z,97.20
2023-03-27T09:43:10.189Z,95.20
2023-03-27T09:45:41.621Z,93.10
2023-03-27T09:48:15.609Z,92.00
2023-03-27T09:50:47.494Z,92.20
2023-03-27T09:53:19.168Z,91.00
2023-03-27T09:55:52.988Z,90.20
2023-03-27T09:58:35.433Z,78.00
2023-03-27T10:01:14.527Z,69.80
2023-03-27T10:03:49.137Z,65.40
2023-03-27T10:06:30.635Z,71.80
2023-03-27T10:09:01.250Z,73.70
2023-03-27T10:11:32.826Z,69.80
2023-03-27T10:14:02.576Z,60.70
2023-03-27T10:16:39.037Z,90.70
2023-03-27T10:19:07.477Z,72.90
2023-03-27T10:21:42.010Z,64.20
2023-03-27T10:24:23.046Z,56.90
2023-03-27T10:26:53.899Z,54.50
2023-03-27T10:29:25.583Z,54.60
2023-03-27T10:31:55.721Z,56.40
2023-03-27T10:34:33.682Z,55.60
2023-03-27T10:37:04.601Z,56.00
2023-03-27T10:39:36.552Z,52.50
2023-03-27T10:42:09.180Z,43.90
2023-03-27T10:44:39.263Z,41.20
2023-03-27T10:47:17.721Z,37.60
2023-03-27T10:49:53.893Z,39.00
2023-03-27T10:52:28.513Z,49.00
2023-03-27T10:55:12.816Z,44.50
2023-03-27T10:57:43.197Z,45.20
2023-03-27T11:00:18.571Z,39.10
2023-03-27T11:02:53.739Z,39.30
2023-03-27T11:05:28.064Z,37.90
2023-03-27T11:08:04.100Z,36.60
2023-03-27T11:10:35.953Z,39.80
2023-03-27T11:13:11.085Z,44.20
2023-03-27T11:15:43.580Z,37.70
2023-03-27T11:18:17.882Z,33.80
2023-03-27T11:20:52.685Z,33.50
2023-03-27T11:23:30.061Z,48.50
2023-03-27T11:25:59.989Z,33.90
2023-03-27T11:28:39.709Z,36.60
2023-03-27T11:31:16.633Z,30.50
2023-03-27T11:33:50.757Z,28.10
2023-03-27T11:36:35.082Z,32.30
2023-03-27T11:39:15.455Z,30.00
2023-03-27T11:41:45.336Z,29.40
2023-03-27T11:44:13.516Z,29.80
2023-03-27T11:47:07.453Z,28.60
2023-03-27T11:49:57.541Z,26.40
2023-03-27T11:52:39.464Z,24.10
2023-03-27T11:55:24.753Z,27.80
2023-03-27T11:58:04.531Z,29.70
2023-03-27T12:00:39.530Z,29.80
2023-03-27T12:03:48.952Z,26.40
2023-03-27T12:06:25.176Z,26.10
2023-03-27T12:09:11.087Z,27.90
2023-03-27T12:11:44.965Z,26.50
2023-03-27T12:14:41.278Z,27.20
2023-03-27T12:17:44.839Z,25.40
2023-03-27T12:20:28.123Z,28.70
2023-03-27T12:23:03.843Z,24.60
2023-03-27T12:25:53.218Z,21.00
2023-03-27T12:28:41.045Z,31.30
2023-03-27T12:31:26.164Z,21.80
2023-03-27T12:34:01.908Z,21.60
2023-03-27T12:36:37.438Z,20.00
2023-03-27T12:39:16.256Z,19.70
2023-03-27T12:41:46.501Z,20.20
2023-03-27T12:44:21.620Z,20.50
2023-03-27T12:47:09.641Z,21.70
2023-03-27T12:49:47.432Z,21.80
2023-03-27T12:52:18.719Z,22.70
2023-03-27T12:55:07.779Z,22.60
2023-03-27T12:57:44.312Z,22.20
2023-03-27T13:00:25.486Z,22.60
2023-03-27T13:03:27.798Z,34.40
2023-03-27T13:06:18.698Z,21.20
2023-03-27T13:09:08.363Z,22.20
2023-03-27T13:11:50.977Z,19.70
2023-03-27T13:14:53.353Z,21.70
2023-03-27T13:17:54.736Z,18.30
2023-03-27T13:20:32.027Z,18.90
2023-03-27T13:23:27.167Z,18.90
2023-03-27T13:26:14.191Z,17.20
2023-03-27T13:28:48.553Z,19.00
2023-03-27T13:31:50.411Z,19.20
2023-03-27T13:34:34.254Z,19.40
2023-03-27T13:37:42.848Z,21.10
2023-03-27T13:40:27.164Z,21.20
2023-03-27T13:43:02.464Z,23.90
2023-03-27T13:45:39.926Z,24.00
2023-03-27T13:49:00.216Z,22.80
2023-03-27T13:51:44.411Z,21.80
2023-03-27T13:54:32.445Z,20.60
2023-03-27T13:57:21.941Z,18.50
2023-03-27T14:00:20.042Z,18.00
2023-03-27T14:03:32.608Z,22.40
2023-03-27T14:06:28.441Z,30.00
2023-03-27T14:09:06.185Z,38.20
2023-03-27T14:11:45.922Z,50.10
2023-03-27T14:14:43.982Z,59.80
2023-03-27T14:17:50.826Z,75.80
2023-03-27T14:20:23.684Z,93.60
2023-03-27T14:22:59.274Z,97.80
2023-03-27T14:25:34.163Z,99.90
2023-03-27T14:28:02.632Z,99.90
2023-03-27T14:30:34.861Z,99.90
2023-03-27T14:33:09.492Z,99.90
2023-03-27T14:35:39.974Z,99.90
2023-03-27T14:38:17.066Z,99.90
2023-03-27T14:40:50.315Z,99.90
2023-03-27T14:43:19.338Z,99.90
2023-03-27T14:45:49.321Z,99.90
2023-03-27T14:48:27.558Z,99.90
2023-03-27T14:50:58.042Z,99.90
2023-03-27T14:53:31.404Z,99.90
2023-03-27T14:56:10.638Z,99.90
2023-03-27T14:58:43.594Z,99.90
2023-03-27T15:01:17.200Z,99.90
2023-03-27T15:03:47.087Z,99.90
2023-03-27T15:06:19.302Z,99.90
2023-03-27T15:08:52.250Z,99.90
2023-03-27T15:11:25.259Z,99.90
2023-03-27T15:13:53.518Z,99.90
2023-03-27T15:16:25.778Z,99.90
2023-03-27T15:19:10.619Z,99.90
2023-03-27T15:21:46.691Z,99.90
2023-03-27T15:24:20.218Z,99.90
2023-03-27T15:26:51.927Z,99.90
2023-03-27T15:29:27.432Z,99.90
2023-03-27T15:31:59.856Z,97.50
2023-03-27T15:34:34.277Z,94.40
2023-03-27T15:37:06.245Z,93.20
2023-03-27T15:39:34.858Z,88.40
2023-03-27T15:42:07.193Z,85.00
2023-03-27T15:44:35.551Z,80.60
2023-03-27T15:47:03.706Z,75.10
2023-03-27T15:49:37.678Z,66.50
2023-03-27T15:52:31.586Z,70.30
2023-03-27T15:55:00.794Z,71.70
2023-03-27T15:57:30.561Z,78.00
2023-03-27T16:00:08.569Z,91.40
2023-03-27T16:02:37.358Z,99.90
2023-03-27T16:05:07.568Z,99.90
2023-03-27T16:07:46.522Z,99.90
2023-03-27T16:10:15.953Z,99.90
2023-03-27T16:12:56.476Z,99.90
2023-03-27T16:15:35.025Z,99.90
2023-03-27T16:18:14.926Z,99.90
2023-03-27T16:20:43.698Z,99.90
2023-03-27T16:23:12.516Z,99.90
2023-03-27T16:25:41.381Z,99.90
2023-03-27T16:28:13.471Z,99.90
2023-03-27T16:30:42.374Z,99.90
2023-03-27T16:33:16.047Z,99.90
2023-03-27T16:35:45.406Z,99.90
2023-03-27T16:38:14.373Z,99.90
2023-03-27T16:40:42.914Z,99.90
2023-03-27T16:43:12.542Z,99.90
2023-03-27T16:45:41.056Z,99.90
2023-03-27T16:48:09.428Z,99.90
2023-03-27T16:50:37.931Z,99.90
2023-03-27T16:53:06.232Z,99.90
2023-03-27T16:55:34.356Z,99.90
2023-03-27T16:58:03.817Z,99.90
2023-03-27T17:00:33.680Z,99.90
2023-03-27T17:03:01.846Z,99.90
2023-03-27T17:05:34.081Z,99.90
2023-03-27T17:08:04.560Z,99.90
2023-03-27T17:10:34.199Z,99.90
2023-03-27T17:13:02.295Z,99.90
2023-03-27T17:15:30.691Z,99.90
2023-03-27T17:18:02.948Z,99.90
2023-03-27T17:20:31.107Z,99.90
2023-03-27T17:22:59.260Z,99.90
2023-03-27T17:25:28.713Z,99.90
2023-03-27T17:27:57.027Z,99.90
2023-03-27T17:30:38.158Z,99.90
2023-03-27T17:33:11.534Z,99.90
2023-03-27T17:35:40.622Z,99.90
2023-03-27T17:38:09.417Z,99.90
2023-03-27T17:40:40.356Z,99.90
2023-03-27T17:43:08.827Z,99.90
2023-03-27T17:45:40.667Z,99.90
2023-03-27T17:48:11.466Z,99.90
2023-03-27T17:50:40.004Z,99.90
2023-03-27T17:53:08.244Z,99.90
2023-03-27T17:55:38.853Z,99.90
2023-03-27T17:58:10.099Z,99.90
2023-03-27T18:00:39.593Z,99.90
2023-03-27T18:03:09.312Z,99.90
2023-03-27T18:05:39.655Z,99.90
2023-03-27T18:08:09.398Z,99.90
2023-03-27T18:10:37.962Z,99.90
2023-03-27T18:13:06.224Z,99.90
2023-03-27T18:15:34.396Z,99.90
2023-03-27T18:18:03.556Z,99.90
2023-03-27T18:20:31.757Z,99.90
2023-03-27T18:23:01.533Z,99.90
2023-03-27T18:25:30.433Z,99.90
2023-03-27T18:27:58.992Z,99.90
2023-03-27T18:30:27.413Z,99.90
2023-03-27T18:32:55.809Z,99.90
2023-03-27T18:35:25.037Z,99.90
2023-03-27T18:37:53.146Z,99.90
2023-03-27T18:40:22.739Z,99.90
2023-03-27T18:42:51.128Z,99.90
2023-03-27T18:45:19.384Z,99.90
2023-03-27T18:47:47.642Z,99.90
2023-03-27T18:50:16.084Z,99.90
2023-03-27T18:52:44.520Z,99.90
2023-03-27T18:55:13.427Z,99.90
2023-03-27T18:57:42.977Z,99.90
2023-03-27T19:00:18.271Z,99.90
2023-03-27T19:02:46.650Z,99.90
2023-03-27T19:05:16.256Z,99.90
2023-03-27T19:07:45.228Z,99.90
2023-03-27T19:10:14.082Z,99.90
2023-03-27T19:12:44.424Z,99.90
2023-03-27T19:15:19.945Z,99.90
2023-03-27T19:17:48.794Z,99.90
2023-03-27T19:20:17.139Z,99.90
2023-03-27T19:22:45.456Z,99.90
2023-03-27T19:25:13.706Z,99.90
2023-03-27T19:27:43.317Z,99.90
2023-03-27T19:30:13.927Z,99.90
2023-03-27T19:32:42.282Z,99.90
2023-03-27T19:35:11.543Z,99.90
2023-03-27T19:37:39.740Z,99.90
2023-03-27T19:40:10.105Z,99.90
2023-03-27T19:42:38.192Z,99.90
2023-03-27T19:45:08.757Z,99.90
2023-03-27T19:47:37.329Z,99.90
2023-03-27T19:50:08.580Z,99.90
2023-03-27T19:52:36.785Z,99.90
2023-03-27T19:55:06.858Z,99.90
2023-03-27T19:57:35.318Z,99.90
2023-03-27T20:00:06.498Z,99.90
2023-03-27T20:02:36.086Z,99.90
2023-03-27T20:05:04.676Z,99.90
2023-03-27T20:07:33.438Z,99.90
2023-03-27T20:10:01.645Z,99.90
2023-03-27T20:12:31.849Z,99.90
2023-03-27T20:15:11.859Z,99.90
2023-03-27T20:17:43.034Z,99.90
2023-03-27T20:20:12.486Z,99.90
2023-03-27T20:22:54.376Z,99.90
2023-03-27T20:25:25.553Z,99.90
2023-03-27T20:27:53.669Z,99.90
2023-03-27T20:30:21.756Z,99.90
2023-03-27T20:32:51.354Z,99.90
2023-03-27T20:35:24.404Z,99.90
2023-03-27T20:37:57.658Z,99.90
2023-03-27T20:40:26.459Z,99.90
2023-03-27T20:43:05.706Z,99.90
2023-03-27T20:45:33.849Z,99.90
2023-03-27T20:48:04.395Z,99.90
2023-03-27T20:50:35.179Z,99.90
2023-03-27T20:53:05.871Z,99.90
2023-03-27T20:55:39.371Z,99.90
2023-03-27T20:58:09.756Z,99.90
2023-03-27T21:00:38.013Z,99.90
2023-03-27T21:03:07.566Z,99.90
2023-03-27T21:05:38.333Z,99.90
2023-03-27T21:08:07.423Z,99.90
2023-03-27T21:10:36.650Z,99.90
2023-03-27T21:13:05.047Z,99.90
2023-03-27T21:15:33.678Z,99.90
2023-03-27T21:18:02.497Z,1.00
2023-03-27T21:20:34.592Z,1.00
2023-03-27T21:23:03.438Z,99.90
2023-03-27T21:25:31.642Z,99.90
2023-03-27T21:27:59.678Z,1.00
2023-03-27T21:30:46.771Z,1.00
2023-03-27T21:33:16.868Z,1.00
2023-03-27T21:35:48.871Z,1.00
2023-03-27T21:38:18.487Z,1.00
2023-03-27T21:40:47.576Z,1.00
2023-03-27T21:43:15.972Z,1.00
2023-03-27T21:45:44.336Z,1.00
2023-03-27T21:48:13.355Z,1.00
2023-03-27T21:50:41.700Z,1.00
2023-03-27T21:53:11.515Z,1.00
2023-03-27T21:55:39.588Z,1.00
2023-03-27T21:58:07.676Z,1.00
2023-03-27T22:00:36.088Z,1.00
2023-03-27T22:03:04.209Z,1.00
2023-03-27T22:05:32.281Z,1.00
2023-03-27T22:08:01.114Z,1.00
2023-03-27T22:10:30.896Z,1.00
2023-03-27T22:12:58.997Z,1.00
2023-03-27T22:15:27.200Z,1.00
2023-03-27T22:17:55.294Z,1.00
2023-03-27T22:20:23.810Z,1.00
2023-03-27T22:22:51.917Z,1.00
2023-03-27T22:25:20.482Z,1.00
2023-03-27T22:27:50.591Z,1.00
2023-03-27T22:30:18.819Z,1.00
2023-03-27T22:32:46.898Z,1.00
2023-03-27T22:35:15.069Z,1.00
2023-03-27T22:37:43.141Z,1.00
2023-03-27T22:40:12.168Z,1.00
2023-03-27T22:42:40.274Z,1.00
2023-03-27T22:45:11.051Z,1.00
2023-03-27T22:47:39.200Z,1.00
2023-03-27T22:50:08.739Z,1.00
2023-03-27T22:52:36.839Z,1.00
2023-03-27T22:55:05.390Z,1.00
2023-03-27T22:57:33.527Z,1.00
2023-03-27T23:00:01.814Z,1.00
2023-03-27T23:02:31.472Z,1.00
2023-03-27T23:04:59.662Z,1.00
2023-03-27T23:07:27.819Z,1.00
2023-03-27T23:09:56.042Z,1.00
2023-03-27T23:12:24.189Z,1.00
2023-03-27T23:14:52.330Z,1.00
2023-03-27T23:17:20.446Z,1.00
2023-03-27T23:19:50.002Z,1.00
2023-03-27T23:22:18.145Z,1.00
2023-03-27T23:24:46.245Z,1.00
2023-03-27T23:27:14.428Z,1.00
2023-03-27T23:29:42.487Z,99.90
2023-03-27T23:32:10.651Z,1.00
2023-03-27T23:34:38.738Z,1.00
2023-03-27T23:37:08.160Z,1.00
2023-03-27T23:39:36.241Z,1.00
2023-03-27T23:42:04.353Z,99.90
2023-03-27T23:44:32.531Z,99.90
2023-03-27T23:47:00.689Z,99.90
2023-03-27T23:49:28.831Z,99.90
2023-03-27T23:51:56.960Z,99.90
2023-03-27T23:54:26.832Z,99.90
2023-03-27T23:56:54.918Z,99.90
2023-03-27T23:59:23.030Z,99.90
